sim
Sign-in with your pilot id or email,
or register
Callsign
Passwort

Schedule Details

Flight Number: DLH410
Departure: Munich Airport (EDDM) at 11:10
Arrival: New York John F. Kennedy International Airport (KJFK) at 20:40
Route: Lufthansa Passenger Schedule. Enter filed route here before submitting Pirep.

Weather Information
Getting current METAR information for EDDM 240120Z 24003KT CAVOK 11/11 Q1009 NOSIG
Getting current METAR information for KJFK 240051Z 24004KT 10SM CLR 19/12 A2990 RMK AO2 SLP125 T01890122 $

Schedule Frequency

Route Map